Latest Weather Observations for Camden

IDN60801

Issued at 7:12 pm EDT Monday 5 December 2022 (issued every 10 minutes, with the page automatically refreshed every 10 minutes)

About weather observations | Map of weather stations | Latest weather observations for NSW | Other Formats
Station Details ID: 068192 Name: CAMDEN AIRPORT AWS Lat: -34.04 Lon: 150.69 Height: 73.9 m
Data from the previous 72 hours. | See also: Recent months at Camden
Date/Time
EDT
Temp
°C
App
Temp
°C
Dew
Point
°C
Rel
Hum
%
Delta-T
°C
Wind Press
QNH
hPa
Press
MSL
hPa
Rain since
9am
mm
Dir  Spd
km/h
Gust
km/h
Spd
kts
Gust
kts
05/07:00pm 25.6 23.7 13.1 46 7.3 ESE 15 24 8 13 1002.4 1002.1 0.0
05/06:34pm 27.3 26.1 11.7 37 9.0 SSW 9 19 5 10 1002.2 1001.9 0.0
05/06:30pm 27.7 26.0 11.3 36 9.4 SW 11 15 6 8 1001.9 1001.5 0.0
05/06:08pm 26.8 20.9 12.5 41 8.3 W 35 54 19 29 1001.9 1001.5 0.0
05/06:01pm 27.5 24.9 11.9 38 9.0 NW 17 54 9 29 1001.8 1001.4 0.0
05/06:00pm 27.8 26.0 12.2 38 9.1 NW 13 46 7 25 1001.8 1001.4 0.0
05/05:43pm 29.7 26.4 11.7 33 10.5 NNW 20 39 11 21 1001.2 1000.9 0.0
05/05:30pm 31.0 29.5 11.9 31 11.2 N 11 13 6 7 1001.1 1000.8 0.0
05/05:00pm 31.6 29.5 12.4 31 11.4 NNE 15 20 8 11 1001.3 1001.0 0.0
05/04:30pm 32.0 30.9 10.7 27 12.3 N 7 15 4 8 1001.7 1001.3 0.0
05/04:00pm 32.0 30.9 10.7 27 12.4 N 7 17 4 9 1002.1 1001.8 0.0
05/03:30pm 32.7 31.7 12.3 28 12.1 N 9 19 5 10 1002.4 1002.1 0.0
05/03:00pm 31.7 30.0 12.5 31 11.5 NNE 13 19 7 10 1002.9 1002.6 0.0
05/02:30pm 31.8 30.9 12.6 31 11.4 NNW 9 20 5 11 1003.4 1003.1 0.0
05/02:00pm 31.8 31.7 14.0 34 10.9 N 7 17 4 9 1003.8 1003.5 0.0
05/01:30pm 31.4 31.5 15.4 38 9.9 NNE 9 19 5 10 1004.3 1004.0 0.0
05/01:00pm 31.0 30.7 15.4 38 9.7 NNE 11 19 6 10 1004.9 1004.6 0.0
05/12:30pm 28.6 28.2 14.1 41 8.7 N 9 19 5 10 1005.7 1005.4 0.0
05/12:00pm 27.2 27.4 14.2 44 7.8 NNW 6 17 3 9 1006.4 1006.1 0.0
05/11:30am 26.1 25.3 13.9 47 7.2 N 11 17 6 9 1006.9 1006.6 0.0
05/11:00am 24.9 24.9 14.1 51 6.4 NNW 7 11 4 6 1007.4 1007.1 0.0
05/10:30am 23.9 23.6 13.4 51 6.1 NNE 7 13 4 7 1007.8 1007.5 0.0
05/10:00am 22.5 22.0 13.8 58 5.1 NNW 9 15 5 8 1008.2 1007.9 0.0
05/09:30am 22.1 22.3 14.2 61 4.6 NNW 6 13 3 7 1008.5 1008.2 0.0
05/09:00am 20.5 21.1 13.0 62 4.3 NE 2 7 1 4 1009.1 1008.8 0.0
05/08:30am 18.8 19.7 12.8 68 3.4 CALM 0 0 0 0 1009.4 1009.1 0.0
05/08:00am 17.5 18.4 12.8 74 2.6 CALM 0 0 0 0 1009.8 1009.5 0.0
05/07:30am 15.3 16.1 12.4 83 1.6 CALM 0 0 0 0 1010.0 1009.7 0.0
05/07:00am 14.0 14.9 12.9 93 0.6 CALM 0 0 0 0 1010.1 1009.8 0.0
05/06:30am 12.7 13.5 12.5 99 0.1 CALM 0 0 0 0 1010.1 1009.8 0.0
05/06:00am 11.5 11.9 11.3 99 0.1 CALM 0 0 0 0 1010.0 1009.7 0.0
05/05:39am 11.6 12.0 11.4 99 0.1 CALM 0 0 0 0 1009.9 1009.6 0.0
05/05:34am 11.6 12.0 11.4 99 0.1 CALM 0 0 0 0 1009.9 1009.6 0.0
05/05:30am 11.7 12.2 11.5 99 0.1 CALM 0 0 0 0 1009.9 1009.6 0.0
05/05:16am 11.6 12.0 11.4 99 0.1 CALM 0 0 0 0 1010.0 1009.7 0.0
05/05:00am 11.9 12.4 11.7 99 0.1 CALM 0 0 0 0 1009.8 1009.5 0.0
05/04:30am 11.6 12.0 11.4 99 0.1 CALM 0 0 0 0 1009.9 1009.6 0.0
05/04:00am 11.8 12.2 11.3 97 0.3 CALM 0 0 0 0 1010.1 1009.8 0.0
05/03:30am 11.9 12.3 11.1 95 0.4 CALM 0 0 0 0 1010.4 1010.1 0.0
05/03:00am 12.1 11.8 11.3 95 0.4 SSW 4 7 2 4 1010.8 1010.5 0.0
05/02:30am 12.7 12.9 11.8 94 0.5 SSW 2 7 1 4 1011.3 1011.0 0.0
05/02:00am 12.7 13.1 11.4 92 0.7 CALM 0 0 0 0 1011.8 1011.5 0.0
05/01:30am 13.2 13.8 11.9 92 0.7 CALM 0 0 0 0 1012.2 1011.9 0.0
05/01:00am 13.8 14.5 12.2 90 0.9 CALM 0 0 0 0 1012.6 1012.3 0.0
05/12:30am 13.9 13.3 11.8 87 1.1 S 6 7 3 4 1013.2 1012.9 0.0
05/12:00am 14.3 14.5 11.8 85 1.3 WSW 2 7 1 4 1013.6 1013.3 0.0
 
Date/Time
EDT
Temp
°C
App
Temp
°C
Dew
Point
°C
Rel
Hum
%
Delta-T
°C
Wind Press
QNH
hPa
Press
MSL
hPa
Rain since
9am
mm
Dir  Spd
km/h
Gust
km/h
Spd
kts
Gust
kts
04/11:30pm 15.3 16.1 12.4 83 1.6 CALM 0 0 0 0 1013.8 1013.6 0.0
04/11:00pm 16.1 17.0 12.8 81 1.8 CALM 0 0 0 0 1014.0 1013.8 0.0
04/10:30pm 16.1 16.9 12.5 79 2.0 CALM 0 6 0 3 1014.0 1013.8 0.0
04/10:00pm 16.7 15.9 11.8 73 2.7 NE 7 9 4 5 1013.8 1013.6 0.0
04/09:30pm 17.9 17.1 11.7 67 3.4 NE 7 11 4 6 1013.9 1013.7 0.0
04/09:00pm 18.5 16.8 11.3 63 3.9 NE 11 17 6 9 1013.6 1013.3 0.0
04/08:30pm 19.2 17.4 11.0 59 4.5 ENE 11 17 6 9 1013.3 1013.0 0.0
04/08:00pm 20.0 18.2 11.0 56 4.9 NE 11 15 6 8 1013.1 1012.8 0.0
04/07:30pm 21.5 18.6 10.9 51 5.8 NE 17 24 9 13 1012.9 1012.6 0.0
04/07:00pm 22.5 19.8 11.6 50 6.1 ENE 17 28 9 15 1012.7 1012.4 0.0
04/06:30pm 23.3 20.0 11.7 48 6.6 ENE 20 30 11 16 1012.3 1012.0 0.0
04/06:00pm 24.3 20.8 12.3 47 6.9 ENE 22 33 12 18 1012.0 1011.7 0.0
04/05:30pm 25.1 21.9 12.0 44 7.5 ENE 20 32 11 17 1012.0 1011.7 0.0
04/05:00pm 26.3 23.4 12.4 42 8.1 ENE 19 26 10 14 1012.0 1011.7 0.0
04/04:30pm 27.3 26.1 11.7 37 9.0 NE 9 20 5 11 1012.1 1011.8 0.0
04/04:00pm 26.7 24.9 9.5 34 9.5 NW 9 20 5 11 1012.5 1012.2 0.0
04/03:30pm 26.7 24.4 10.4 36 9.2 N 13 20 7 11 1012.8 1012.5 0.0
04/03:00pm 26.9 24.4 9.7 34 9.6 NNE 13 19 7 10 1013.2 1012.9 0.0
04/02:30pm 26.3 24.5 9.6 35 9.2 N 9 15 5 8 1013.7 1013.5 0.0
04/02:00pm 25.6 23.6 8.6 34 9.2 NE 9 19 5 10 1014.2 1014.0 0.0
04/01:30pm 25.7 23.2 11.1 40 8.3 NNW 15 20 8 11 1014.5 1014.3 0.0
04/01:00pm 25.5 22.7 10.1 38 8.5 NE 15 28 8 15 1015.1 1014.9 0.0
04/12:30pm 25.4 23.2 10.8 40 8.2 NNE 13 22 7 12 1015.7 1015.4 0.0
04/12:00pm 24.2 21.6 9.4 39 8.1 N 13 22 7 12 1016.1 1015.8 0.0
04/11:30am 23.6 20.7 11.0 45 7.0 N 17 24 9 13 1016.5 1016.2 0.0
04/11:00am 23.8 21.0 11.2 45 7.1 NNE 17 24 9 13 1016.8 1016.5 0.0
04/10:30am 21.5 18.9 10.6 50 6.0 N 15 20 8 11 1017.0 1016.7 0.0
04/10:00am 21.8 20.3 11.8 53 5.6 N 11 22 6 12 1017.1 1016.8 0.0
04/09:30am 20.9 19.2 12.6 59 4.7 N 13 19 7 10 1017.5 1017.2 0.0
04/09:00am 19.4 19.1 12.7 65 3.8 N 6 11 3 6 1017.8 1017.5 0.0
04/08:30am 17.9 18.8 13.0 73 2.8 CALM 0 0 0 0 1017.8 1017.5 0.0
04/08:00am 16.4 16.9 12.9 80 1.9 SSW 2 6 1 3 1017.9 1017.6 0.0
04/07:30am 14.9 15.9 13.3 90 0.9 CALM 0 0 0 0 1017.8 1017.5 0.0
04/07:00am 13.2 14.1 13.0 99 0.1 CALM 0 0 0 0 1017.7 1017.4 0.0
04/06:52am 12.9 13.7 12.7 99 0.1 CALM 0 0 0 0 1017.6 1017.3 0.0
04/06:35am 12.3 13.0 12.1 99 0.1 CALM 0 0 0 0 1017.4 1017.1 0.0
04/06:31am 12.0 12.6 11.8 99 0.1 CALM 0 0 0 0 1017.4 1017.1 0.0
04/06:30am 12.0 12.6 11.8 99 0.1 CALM 0 0 0 0 1017.4 1017.1 0.0
04/06:00am 11.1 11.4 10.9 99 0.1 CALM 0 0 0 0 1017.4 1017.1 0.0
04/05:30am 11.3 11.7 11.1 99 0.1 CALM 0 0 0 0 1017.1 1016.8 0.0
04/05:17am 11.2 11.5 11.0 99 0.1 CALM 0 0 0 0 1017.0 1016.7 0.0
04/05:00am 11.3 11.6 11.0 98 0.2 CALM 0 0 0 0 1016.9 1016.6 0.0
04/04:53am 11.5 11.9 11.2 98 0.2 CALM 0 0 0 0 1016.9 1016.6 0.0
04/04:50am 11.6 12.0 11.3 98 0.2 CALM 0 0 0 0 1016.8 1016.5 0.0
04/04:47am 11.6 12.0 11.3 98 0.2 CALM 0 0 0 0 1016.8 1016.5 0.0
04/04:41am 11.7 12.1 11.4 98 0.2 CALM 0 0 0 0 1016.8 1016.5 0.0
04/04:30am 11.8 12.3 11.5 98 0.2 CALM 0 0 0 0 1016.8 1016.5 0.0
04/04:25am 11.9 12.4 11.6 98 0.2 CALM 0 0 0 0 1016.8 1016.5 0.0
04/04:00am 11.9 12.3 11.3 96 0.3 CALM 0 0 0 0 1016.9 1016.6 0.0
04/03:59am 12.0 12.4 11.4 96 0.3 CALM 0 0 0 0 1016.8 1016.5 0.0
04/03:30am 12.4 13.0 11.8 96 0.3 CALM 0 0 0 0 1016.8 1016.5 0.0
04/03:00am 12.6 13.2 11.8 95 0.4 CALM 0 0 0 0 1016.8 1016.5 0.0
04/02:30am 13.3 14.1 12.5 95 0.4 CALM 0 0 0 0 1016.9 1016.6 0.0
04/02:00am 13.4 14.3 12.9 97 0.3 CALM 0 0 0 0 1017.2 1016.9 0.0
04/01:30am 12.9 13.6 12.3 96 0.3 CALM 0 0 0 0 1017.5 1017.2 0.0
04/01:00am 12.7 13.2 11.6 93 0.6 CALM 0 0 0 0 1017.8 1017.5 0.0
04/12:30am 12.9 13.4 11.6 92 0.7 CALM 0 0 0 0 1017.9 1017.6 0.0
04/12:00am 13.3 13.7 11.4 88 1.0 CALM 0 0 0 0 1018.1 1017.8 0.0
 
Date/Time
EDT
Temp
°C
App
Temp
°C
Dew
Point
°C
Rel
Hum
%
Delta-T
°C
Wind Press
QNH
hPa
Press
MSL
hPa
Rain since
9am
mm
Dir  Spd
km/h
Gust
km/h
Spd
kts
Gust
kts
03/11:30pm 14.0 14.6 11.9 87 1.1 CALM 0 0 0 0 1018.1 1017.8 0.0
03/11:00pm 14.2 14.5 11.0 81 1.7 CALM 0 0 0 0 1018.2 1017.9 0.0
03/10:30pm 15.0 15.6 11.8 81 1.7 CALM 0 0 0 0 1018.1 1017.8 0.0
03/10:00pm 16.0 16.4 11.4 74 2.5 CALM 0 0 0 0 1018.0 1017.7 0.0
03/09:30pm 16.7 15.9 11.0 69 3.1 E 6 7 3 4 1017.8 1017.5 0.0
03/09:00pm 17.7 16.7 11.0 65 3.6 ENE 7 13 4 7 1017.4 1017.1 0.0
03/08:30pm 18.2 16.4 11.0 63 3.9 ENE 11 15 6 8 1017.0 1016.7 0.0
03/08:00pm 19.0 17.3 11.1 60 4.3 E 11 17 6 9 1016.7 1016.4 0.0
03/07:30pm 19.9 17.9 11.4 58 4.7 ENE 13 20 7 11 1016.5 1016.2 0.0
03/07:00pm 21.0 18.2 11.3 54 5.4 ENE 17 24 9 13 1016.3 1016.0 0.0
03/06:30pm 22.0 19.1 11.1 50 6.1 ENE 17 24 9 13 1016.0 1015.7 0.0
03/06:00pm 22.8 20.3 11.2 48 6.5 ENE 15 22 8 12 1015.8 1015.5 0.0
03/05:30pm 23.6 20.8 11.3 46 6.9 ENE 17 24 9 13 1015.8 1015.5 0.0
03/05:00pm 23.8 21.2 10.8 44 7.2 NE 15 24 8 13 1015.7 1015.4 0.0
03/04:30pm 24.1 21.2 11.1 44 7.3 ENE 17 24 9 13 1015.8 1015.5 0.0
03/04:00pm 24.7 22.4 11.6 44 7.4 ENE 15 26 8 14 1015.8 1015.5 0.0
03/03:30pm 24.8 22.9 11.7 44 7.5 E 13 20 7 11 1016.0 1015.7 0.0
03/03:00pm 25.7 22.9 11.5 41 8.1 NE 17 24 9 13 1016.2 1015.9 0.0
03/02:50pm 24.0 22.0 10.3 42 7.6 ENE 11 19 6 10 1016.2 1015.9 0.0
03/02:32pm 25.1 21.9 9.8 38 8.4 N 17 24 9 13 1016.3 1016.0 0.0
03/02:30pm 24.8 21.5 9.5 38 8.4 N 17 24 9 13 1016.3 1016.0 0.0
03/02:00pm 23.3 20.8 8.2 38 8.0 NNE 11 19 6 10 1016.6 1016.3 0.0
03/01:30pm 24.6 22.2 8.5 36 8.7 NE 11 19 6 10 1017.0 1016.7 0.0
03/01:00pm 23.8 21.8 8.6 38 8.1 SE 9 17 5 9 1017.3 1017.0 0.0
03/12:30pm 24.1 22.4 10.0 41 7.8 NE 9 19 5 10 1017.7 1017.4 0.0
03/12:00pm 23.2 21.8 8.9 40 7.7 SE 6 11 3 6 1018.0 1017.7 0.0
03/11:30am 21.9 19.4 8.4 42 7.1 ESE 11 17 6 9 1018.5 1018.2 0.0
03/11:00am 21.4 19.6 8.0 42 7.0 N 7 13 4 7 1018.7 1018.4 0.0
03/10:30am 20.6 19.4 9.5 49 5.9 NW 6 9 3 5 1018.9 1018.6 0.0
03/10:00am 20.0 18.9 9.9 52 5.4 SSW 6 11 3 6 1019.1 1018.8 0.0
03/09:30am 19.1 18.1 9.0 52 5.3 SSW 4 9 2 5 1019.3 1019.0 0.0
03/09:00am 18.3 17.3 10.2 59 4.3 S 6 13 3 7 1019.6 1019.3 0.0
03/08:30am 16.9 17.4 11.6 71 2.9 CALM 0 0 0 0 1019.6 1019.3 0.0
03/08:00am 16.0 16.2 11.8 76 2.3 SE 2 7 1 4 1019.5 1019.2 0.0
03/07:30am 14.3 15.1 12.5 89 1.0 CALM 0 0 0 0 1019.2 1018.9 0.0
03/07:05am 12.3 13.0 12.1 99 0.1 CALM 0 0 0 0 1019.0 1018.7 0.0
03/07:02am 11.9 12.4 11.7 99 0.1 CALM 0 0 0 0 1018.9 1018.6 0.0
03/07:00am 11.8 12.3 11.6 99 0.1 CALM 0 0 0 0 1018.9 1018.6 0.0
03/06:50am 10.9 11.1 10.7 99 0.1 CALM 0 0 0 0 1018.8 1018.5 0.0
03/06:30am 9.6 9.5 9.5 99 0.0 CALM 0 0 0 0 1018.7 1018.4 0.0
03/06:29am 9.6 9.5 9.5 99 0.0 CALM 0 0 0 0 1018.7 1018.4 0.0
03/06:25am 9.6 9.5 9.5 99 0.0 CALM 0 0 0 0 1018.6 1018.3 0.0
03/06:21am 9.7 9.6 9.6 99 0.1 CALM 0 0 0 0 1018.6 1018.3 0.0
03/06:20am 9.6 9.5 9.5 99 0.0 CALM 0 0 0 0 1018.6 1018.3 0.0
03/06:02am 9.3 9.1 9.2 99 0.0 CALM 0 0 0 0 1018.5 1018.2 0.0
03/06:00am 9.3 9.1 9.2 99 0.0 CALM 0 0 0 0 1018.4 1018.1 0.0
03/05:52am 9.5 9.4 9.4 99 0.0 CALM 0 0 0 0 1018.4 1018.1 0.0
03/05:45am 9.6 9.5 9.5 99 0.0 CALM 0 0 0 0 1018.3 1018.0 0.0
03/05:30am 9.7 9.6 9.6 99 0.1 CALM 0 0 0 0 1018.3 1018.0 0.0
03/05:26am 9.6 9.5 9.5 99 0.0 CALM 0 0 0 0 1018.3 1018.0 0.0
03/05:16am 9.8 9.8 9.7 99 0.1 CALM 0 0 0 0 1018.2 1017.9 0.0
03/05:13am 10.0 10.0 9.9 99 0.1 CALM 0 0 0 0 1018.2 1017.9 0.0
03/05:00am 9.2 9.0 9.1 99 0.0 CALM 0 0 0 0 1018.1 1017.8 0.0
03/04:45am 9.6 9.5 9.5 99 0.0 CALM 0 0 0 0 1018.0 1017.7 0.0
03/04:37am 9.6 9.5 9.5 99 0.0 CALM 0 0 0 0 1018.0 1017.7 0.0
03/04:33am 9.7 9.6 9.6 99 0.1 CALM 0 0 0 0 1018.0 1017.7 0.0
03/04:31am 9.8 9.8 9.7 99 0.1 CALM 0 0 0 0 1018.0 1017.7 0.0
03/04:30am 9.9 9.9 9.8 99 0.1 CALM 0 0 0 0 1018.0 1017.7 0.0
03/04:25am 10.3 10.4 10.1 99 0.1 CALM 0 0 0 0 1018.0 1017.7 0.0
03/04:15am 10.4 10.5 10.2 99 0.1 CALM 0 0 0 0 1018.0 1017.7 0.0
03/04:00am 10.4 10.5 10.2 99 0.1 CALM 0 0 0 0 1017.9 1017.6 0.0
03/03:55am 10.2 10.3 10.1 99 0.1 CALM 0 0 0 0 1017.9 1017.6 0.0
03/03:44am 9.9 9.9 9.8 99 0.1 CALM 0 0 0 0 1017.9 1017.6 0.0
03/03:30am 10.5 10.6 10.3 99 0.1 CALM 0 0 0 0 1017.9 1017.6 0.0
03/03:00am 10.7 10.9 10.5 99 0.1 CALM 0 0 0 0 1017.9 1017.6 0.0
03/02:59am 10.6 10.8 10.4 99 0.1 CALM 0 0 0 0 1017.9 1017.6 0.0
03/02:47am 10.9 11.1 10.7 99 0.1 CALM 0 0 0 0 1017.9 1017.6 0.0
03/02:35am 11.1 11.4 10.9 99 0.1 CALM 0 0 0 0 1017.9 1017.6 0.0
03/02:30am 11.4 11.8 11.2 99 0.1 CALM 0 0 0 0 1018.0 1017.7 0.0
03/02:13am 11.4 11.8 11.2 99 0.1 CALM 0 0 0 0 1018.2 1017.9 0.0
03/02:00am 11.3 11.7 11.1 99 0.1 CALM 0 0 0 0 1018.3 1018.0 0.0
03/01:37am 11.6 12.0 11.4 99 0.1 CALM 0 0 0 0 1018.4 1018.1 0.0
03/01:30am 11.7 12.1 11.4 98 0.2 CALM 0 0 0 0 1018.4 1018.1 0.0
03/01:15am 12.0 12.5 11.5 97 0.3 CALM 0 0 0 0 1018.5 1018.2 0.0
03/01:12am 11.9 12.3 11.3 96 0.3 CALM 0 0 0 0 1018.5 1018.2 0.0
03/01:11am 12.0 12.4 11.4 96 0.3 CALM 0 0 0 0 1018.5 1018.2 0.0
03/01:05am 12.0 12.4 11.2 95 0.4 CALM 0 0 0 0 1018.6 1018.3 0.0
03/01:00am 11.9 12.3 11.1 95 0.4 CALM 0 0 0 0 1018.7 1018.4 0.0
03/12:53am 12.1 12.5 11.2 94 0.5 CALM 0 0 0 0 1018.7 1018.4 0.0
03/12:41am 12.3 12.7 11.4 94 0.5 CALM 0 0 0 0 1018.9 1018.6 0.0
03/12:30am 12.3 12.7 11.4 94 0.5 CALM 0 0 0 0 1018.9 1018.6 0.0
03/12:00am 13.0 13.7 12.1 94 0.5 CALM 0 0 0 0 1019.1 1018.8 0.0
 
Date/Time
EDT
Temp
°C
App
Temp
°C
Dew
Point
°C
Rel
Hum
%
Delta-T
°C
Wind Press
QNH
hPa
Press
MSL
hPa
Rain since
9am
mm
Dir  Spd
km/h
Gust
km/h
Spd
kts
Gust
kts
02/11:30pm 13.1 13.5 11.2 88 1.0 CALM 0 0 0 0 1019.3 1019.0 0.0
02/11:00pm 13.9 14.1 11.8 87 1.1 SW 2 7 1 4 1019.4 1019.1 0.0
02/10:30pm 14.3 15.0 12.3 88 1.1 CALM 0 0 0 0 1019.4 1019.1 0.0
02/10:00pm 14.5 14.7 11.7 83 1.5 SSW 2 7 1 4 1019.4 1019.1 0.0
02/09:30pm 15.1 15.7 11.9 81 1.7 CALM 0 6 0 3 1019.1 1018.8 0.0
02/09:00pm 15.8 14.7 11.8 77 2.2 SW 9 11 5 6 1018.8 1018.5 0.0
02/08:30pm 16.7 15.6 11.8 73 2.7 SW 9 11 5 6 1018.4 1018.1 0.0
02/08:00pm 17.3 16.0 11.3 68 3.3 S 9 13 5 7 1018.3 1018.0 0.0
02/07:30pm 17.6 14.7 10.9 65 3.6 SSE 17 24 9 13 1018.2 1017.9 0.0

Other formats

Comma delimited format used in spreadsheet applications
http://www.bom.gov.au/fwo/IDN60801/IDN60801.94755.axf

JavaScript Object Notation format (JSON) in row-major order
http://www.bom.gov.au/fwo/IDN60801/IDN60801.94755.json

Data quality

Most of these data are generated automatically and are frequently updated. Quality checks on data are not normally performed. It is possible for incorrect values to appear. Refer to information at About Latest Weather Observations and please check the disclaimer before using these data.